Arcola, Louisiana
Current Conditions -  °F | °C
As of 2:19 PM on Friday 19 Dec 2014 (Local Time) from KMCB Reporting Station
Moderate Rain Moderate Rain  
Wind Chill: 41°   Ceiling: 6000
Heat Index: 45°   Visibility: 4mi
Dew Point: 41°   Wind: 8mph
Humidity: 86%   Direction: 70°ENE
Pressure: 30.1"   Gusts: NA
Location:  30.7896°N, 90.5314°W
Report Text: KMCB 192019Z AUTO 07007KT 4SM RA BR SCT019 SCT030 OVC060 07/05 A3010 RMK AO2 P0004 T00720050
Loading
Personal Weather Stations






























Interactive Weather Map New forecast layout! Learn more

10-Day Weather Forecast

Advertisements
Track Severe Weather on mobile